Terminal Aerodrome Forecast
Issued by NWS

Home | Current Version | Previous Version | Text Only | Print | Product List | Glossary Off
Versions: 1 2 3 4 5 6 7 8 9 10 11 12 13 14 15 16 17 18 19

000
FTUS43 KMPX 281139
TAFRNH
TAF
KRNH 281139Z 2812/2912 00000KT 1/2SM FG VV001
      TEMPO 2813/2814 1SM BR BKN002
     FM281400 14005KT 3SM BR BKN004
     FM281500 16006KT P6SM BKN015 BKN250
     FM281700 16008KT P6SM SCT250
     FM290800 16003KT 2SM BR SCT005=

USA.gov is the U.S. government's official web portal to all federal, state and local government web resources and services.